Airfield :







YOU CAN JOIN US ON...

 
LOGIN :

Register | Disclaimer

   EN    FR    IT 

 









Legend :    VFR   Marginal VFR   IFR   Intensive IFR   Very Intensive IFR
Visi :
Ceiling :
>= 8 km
>= 3000ft
5 to 8 km
1000 to 3000 ft
1500m to 5 km
500 to 1000 ft
800 to 1500m
200 to 500 ft
< 800m
< 200 ft
Symbols :   Thunderstorms  Fog  Heavy snow  Heavy precipitations  Wind > 20 kt






- Airport Elevation : 586 ft
- IATA code : YRJ


CYRJ - Roberval

CURRENT METAR :
  • 201700Z 28007KT 40SM SCT011 OVC015 02/01 A3022 RMK SF3SC5 SLP244

EXPIRED METARs :
  • 201621Z 30006KT 12SM OVC006 01/01 A3021 RMK SF8 SLP240
  • 201600Z 31009KT 4SM -SHSN OVC004 01/00 A3020 RMK SF8 /S02/ SLP239
  • 201500Z 31008KT 2SM -SHSN OVC004 00/00 A3018 RMK SN2SF6 SLP231

TAF TAF CYRJ
Valid from the 20 at 14:00 until the 21 at 02:00 UTC


201338Z 2014/2102 31008KT 1SM -SHSN OVC003
TEMPO 2014/2016 6SM -SHSN SCT003 OVC010
FM201600 31010KT 2SM -SHSNRA BR OVC005
TEMPO 2016/2018 P6SM NSW SCT005 OVC010
FM201800 31010KT P6SM BKN025
TEMPO 2018/2020 5SM -SHSNRA BKN020
FM202000 29005KT P6SM BKN030 RMK NXT FCST BY 202000Z
CZUL FIR / North America



MET'MAP, your aeronautical weather chart ! - Copyright ORBIFLY December 2007 - Disclaimer

ORBIFLY MET'MAP TEAM :

Programming & Development : Alexandra Zaïnal
Concept & original design : Baudouin d'Aumeries
Assistance for programming : Marc-Olivier Méhu
Technical & hardware support : Manuel Goepfert

Contact : metmap@orbifly.com




SOURCES & CREDITS :

   NOAA